Time;durP1;ratioP1;P1;durP2;ratioP2;P2;SDS_P1;SDS_P2;PMS_P1;PMS_P2;Temp;Humidity;BMP_temperature;BMP_pressure;BME280_temperature;BME280_humidity;BME280_pressure;Samples;Min_cycle;Max_cycle;Signal;HPM_P1;HPM_P2
2021/10/09 00:00:07;;;;;;;34.63;22.10;;;;;;;10.81;82.44;102624.13;5070786;28;20040;-69
2021/10/09 00:02:34;;;;;;;43.78;24.15;;;;;;;10.73;82.28;102626.47;5088310;28;20245;-69
2021/10/09 00:05:02;;;;;;;41.20;22.02;;;;;;;10.70;82.54;102627.56;5083928;28;20056;-69
2021/10/09 00:07:29;;;;;;;35.28;22.52;;;;;;;10.68;82.51;102618.84;5093664;28;20570;-69
2021/10/09 00:09:59;;;;;;;41.90;23.92;;;;;;;10.66;82.87;102615.47;5097297;28;20037;-68
2021/10/09 00:12:27;;;;;;;39.37;23.43;;;;;;;10.61;82.79;102620.25;5071284;28;20036;-69
2021/10/09 00:14:54;;;;;;;37.85;22.45;;;;;;;10.58;82.84;102612.50;5087957;28;20485;-69
2021/10/09 00:17:23;;;;;;;36.72;21.65;;;;;;;10.51;83.21;102616.53;5087732;28;20436;-69
2021/10/09 00:19:50;;;;;;;37.67;21.83;;;;;;;10.45;82.76;102619.63;5087505;28;20089;-69
2021/10/09 00:22:17;;;;;;;39.67;22.65;;;;;;;10.46;82.59;102618.66;5093340;28;20036;-69
2021/10/09 00:24:44;;;;;;;40.65;23.27;;;;;;;10.44;82.71;102616.13;5095284;28;20405;-69
2021/10/09 00:27:11;;;;;;;39.03;22.98;;;;;;;10.43;83.00;102617.06;5080828;28;20136;-69
2021/10/09 00:29:38;;;;;;;38.70;23.73;;;;;;;10.42;83.02;102617.19;5073298;28;20040;-68
2021/10/09 00:32:05;;;;;;;44.65;23.83;;;;;;;10.42;82.41;102620.66;5084601;28;20049;-69
2021/10/09 00:34:32;;;;;;;37.10;22.17;;;;;;;10.37;82.68;102621.00;5072300;28;20037;-67
2021/10/09 00:36:59;;;;;;;38.90;22.98;;;;;;;10.33;82.88;102616.00;5085849;28;20050;-69
2021/10/09 00:39:26;;;;;;;38.72;23.35;;;;;;;10.34;82.67;102617.72;5083079;28;20094;-69
2021/10/09 00:41:52;;;;;;;36.78;22.27;;;;;;;10.26;83.25;102626.19;5083583;28;20393;-69
2021/10/09 00:44:19;;;;;;;39.50;23.15;;;;;;;10.22;82.89;102627.31;5073061;28;20429;-69
2021/10/09 00:46:46;;;;;;;39.85;24.23;;;;;;;10.05;83.36;102617.88;5074102;28;20482;-69
2021/10/09 00:49:16;;;;;;;41.92;23.45;;;;;;;10.14;83.12;102617.25;5073858;28;20037;-69
2021/10/09 00:51:45;;;;;;;39.25;21.67;;;;;;;10.18;83.11;102626.69;5074723;28;20036;-69
2021/10/09 00:54:13;;;;;;;38.22;22.52;;;;;;;10.19;83.05;102620.44;5050443;28;20512;-69
2021/10/09 00:56:42;;;;;;;36.75;21.75;;;;;;;10.15;83.03;102624.28;5080718;28;20039;-69
2021/10/09 00:59:10;;;;;;;40.22;23.00;;;;;;;10.12;83.29;102619.16;5074132;28;20048;-69
2021/10/09 01:01:37;;;;;;;38.58;23.13;;;;;;;10.10;83.84;102622.88;5073654;28;20098;-69
2021/10/09 01:04:05;;;;;;;38.30;23.35;;;;;;;10.08;83.75;102620.34;5070826;28;20041;-69
2021/10/09 01:06:33;;;;;;;40.00;24.25;;;;;;;10.05;83.01;102614.41;5070985;28;20516;-69
2021/10/09 01:09:01;;;;;;;41.33;24.17;;;;;;;10.05;83.28;102623.19;5085880;28;20378;-69
2021/10/09 01:11:29;;;;;;;37.58;22.58;;;;;;;9.94;83.97;102623.06;5089537;28;20044;-69
2021/10/09 01:13:57;;;;;;;44.70;23.80;;;;;;;9.94;83.97;102615.13;5086390;28;20082;-69
2021/10/09 01:16:27;;;;;;;39.10;23.98;;;;;;;9.89;83.93;102618.06;5073102;28;20048;-69
2021/10/09 01:18:57;;;;;;;40.25;23.48;;;;;;;9.83;83.59;102612.34;5072656;28;20048;-69
2021/10/09 01:21:26;;;;;;;44.67;24.60;;;;;;;9.78;83.82;102612.66;5056285;28;20059;-69
2021/10/09 01:23:56;;;;;;;40.50;23.92;;;;;;;9.85;83.49;102605.16;5088791;28;20079;-68
2021/10/09 01:26:24;;;;;;;46.15;23.85;;;;;;;9.84;83.93;102601.66;5094271;28;20117;-69
2021/10/09 01:28:51;;;;;;;41.90;24.30;;;;;;;9.86;83.78;102598.88;5076095;28;20061;-69
2021/10/09 01:31:19;;;;;;;53.65;24.52;;;;;;;9.80;83.70;102594.84;5092840;28;20130;-69
2021/10/09 01:33:47;;;;;;;40.75;24.00;;;;;;;9.88;83.41;102595.19;5092030;28;20514;-70
2021/10/09 01:36:20;;;;;;;38.17;23.45;;;;;;;9.80;83.62;102595.72;5072334;28;20044;-69
2021/10/09 01:38:49;;;;;;;38.45;23.15;;;;;;;9.79;83.61;102601.94;5067642;28;20044;-67
2021/10/09 01:41:19;;;;;;;43.38;22.80;;;;;;;9.72;83.75;102591.88;5071988;28;20040;-68
2021/10/09 01:43:47;;;;;;;41.42;23.58;;;;;;;9.68;83.38;102600.97;5079323;28;20052;-67
2021/10/09 01:46:14;;;;;;;48.80;24.73;;;;;;;9.64;83.20;102597.69;5091007;28;20036;-67
2021/10/09 01:48:42;;;;;;;40.03;23.83;;;;;;;9.58;83.50;102598.09;5092412;28;20048;-68
2021/10/09 01:51:10;;;;;;;43.47;23.83;;;;;;;9.56;83.95;102600.00;5092428;28;20561;-68
2021/10/09 01:53:40;;;;;;;38.88;23.60;;;;;;;9.58;83.62;102596.28;5077109;28;20554;-68
2021/10/09 01:56:08;;;;;;;40.10;24.23;;;;;;;9.55;83.76;102593.84;5082275;28;20588;-68
2021/10/09 01:58:36;;;;;;;40.33;25.08;;;;;;;9.49;84.09;102594.25;5087638;28;20051;-68
2021/10/09 02:01:06;;;;;;;38.85;23.98;;;;;;;9.49;83.67;102582.81;5075840;28;20044;-68
2021/10/09 02:03:35;;;;;;;42.63;24.70;;;;;;;9.46;83.42;102594.47;5075512;28;20043;-68
2021/10/09 02:06:03;;;;;;;41.30;24.67;;;;;;;9.51;83.65;102589.69;5092054;28;20032;-68
2021/10/09 02:08:30;;;;;;;38.88;24.42;;;;;;;9.51;83.18;102578.25;5091025;28;20036;-68
2021/10/09 02:11:00;;;;;;;42.85;24.75;;;;;;;9.50;83.09;102577.41;5075180;28;20051;-68
2021/10/09 02:13:37;;;;;;;44.97;23.48;;;;;;;9.47;83.55;102579.41;5047173;28;20066;-68
2021/10/09 02:16:17;;;;;;;44.50;25.23;;;;;;;9.44;83.96;102579.59;5034985;28;20401;-68
2021/10/09 02:19:02;;;;;;;47.08;24.98;;;;;;;9.39;84.02;102579.94;5052183;28;20049;-68
2021/10/09 02:24:50;;;;;;;42.75;24.88;;;;;;;9.39;84.14;102571.97;5056367;28;20055;-68
2021/10/09 02:27:02;;;;;;;47.00;25.88;;;;;;;9.40;83.76;102571.00;5072499;28;20123;-68
2021/10/09 02:29:29;;;;;;;45.78;26.05;;;;;;;9.40;83.48;102577.19;5054817;28;20115;-68
2021/10/09 02:31:57;;;;;;;48.78;26.83;;;;;;;9.38;84.08;102572.91;5038456;28;20505;-67
2021/10/09 02:34:25;;;;;;;42.00;25.17;;;;;;;9.38;83.67;102570.25;5070715;28;20099;-68
2021/10/09 02:36:51;;;;;;;47.67;25.65;;;;;;;9.41;83.84;102572.72;5054681;28;20037;-68
2021/10/09 02:39:18;;;;;;;43.65;25.60;;;;;;;9.38;84.05;102575.56;5072770;28;20040;-68
2021/10/09 02:41:45;;;;;;;47.08;25.65;;;;;;;9.38;83.46;102575.56;5052041;28;20052;-68
2021/10/09 02:44:12;;;;;;;45.50;25.48;;;;;;;9.33;83.41;102569.72;5043718;28;20041;-68
2021/10/09 02:46:39;;;;;;;49.60;25.77;;;;;;;9.32;83.72;102575.97;5051606;28;20128;-68
2021/10/09 02:49:06;;;;;;;45.17;25.35;;;;;;;9.32;83.76;102574.16;5051896;28;20193;-68
2021/10/09 02:51:33;;;;;;;46.72;25.63;;;;;;;9.30;83.71;102573.44;5070731;28;20040;-68
2021/10/09 02:54:00;;;;;;;49.95;27.02;;;;;;;9.29;84.25;102574.38;5054335;28;20040;-68
2021/10/09 02:56:26;;;;;;;53.65;27.42;;;;;;;9.29;84.11;102568.22;5053696;28;20047;-68
2021/10/09 02:58:53;;;;;;;51.25;27.27;;;;;;;9.30;84.41;102573.44;5072145;28;20133;-68
2021/10/09 03:01:20;;;;;;;42.40;25.15;;;;;;;9.31;84.46;102571.63;5039974;28;20049;-68
2021/10/09 03:03:47;;;;;;;47.40;25.40;;;;;;;9.29;84.21;102571.72;5034154;28;20037;-68
2021/10/09 03:06:14;;;;;;;50.72;27.00;;;;;;;9.31;84.55;102567.16;5065562;28;20040;-68
2021/10/09 03:08:41;;;;;;;47.55;28.02;;;;;;;9.33;83.87;102567.06;5069979;28;20447;-68
2021/10/09 03:11:08;;;;;;;50.10;28.20;;;;;;;9.32;84.36;102568.88;5068996;28;20383;-68
2021/10/09 03:13:34;;;;;;;51.55;28.33;;;;;;;9.33;84.13;102569.72;5067292;28;20040;-68
2021/10/09 03:16:01;;;;;;;55.90;28.88;;;;;;;9.31;84.34;102561.88;5071509;28;20161;-68
2021/10/09 03:18:28;;;;;;;59.13;29.42;;;;;;;9.28;84.28;102562.09;5070581;28;20052;-67
2021/10/09 03:20:56;;;;;;;49.30;27.42;;;;;;;9.34;84.15;102569.63;5072009;28;20056;-68
2021/10/09 03:23:22;;;;;;;50.50;29.17;;;;;;;9.33;84.05;102562.63;5074885;28;20098;-68
2021/10/09 03:25:49;;;;;;;53.67;29.35;;;;;;;9.35;83.88;102560.75;5091954;28;20037;-68
2021/10/09 03:28:19;;;;;;;55.58;29.48;;;;;;;9.27;84.17;102564.84;5090442;28;20123;-68
2021/10/09 03:30:46;;;;;;;52.50;28.98;;;;;;;9.29;84.35;102557.63;5092220;28;20508;-68
2021/10/09 03:33:13;;;;;;;53.13;29.98;;;;;;;9.27;84.18;102564.84;5090566;28;20083;-68
2021/10/09 03:35:41;;;;;;;50.83;30.05;;;;;;;9.26;84.15;102561.34;5077352;28;20044;-68
2021/10/09 03:38:07;;;;;;;54.03;29.75;;;;;;;9.24;83.91;102568.53;5071480;28;20135;-68
2021/10/09 03:40:35;;;;;;;63.13;30.38;;;;;;;9.30;83.88;102568.13;5070783;28;20067;-67
2021/10/09 03:43:08;;;;;;;56.38;30.52;;;;;;;9.30;83.53;102567.28;5054519;28;20455;-67
2021/10/09 03:45:48;;;;;;;53.40;30.83;;;;;;;9.31;83.96;102561.03;5074252;28;20326;-68
2021/10/09 03:48:45;;;;;;;54.28;29.83;;;;;;;9.28;83.70;102567.38;5075617;28;20043;-68
2021/10/09 03:53:38;;;;;;;64.03;31.35;;;;;;;9.33;83.51;102569.72;5090603;28;20054;-67
2021/10/09 03:56:06;;;;;;;61.17;31.95;;;;;;;9.25;83.65;102569.38;5090254;28;20040;-67
2021/10/09 03:58:40;;;;;;;55.50;29.83;;;;;;;9.32;83.14;102571.53;5077331;28;20052;-68
2021/10/09 04:01:07;;;;;;;63.75;32.45;;;;;;;9.28;83.28;102575.34;5092489;28;20102;-68
2021/10/09 04:03:34;;;;;;;57.70;31.55;;;;;;;9.26;82.87;102573.72;5073758;28;20040;-68
2021/10/09 04:06:03;;;;;;;51.70;29.40;;;;;;;9.28;82.54;102571.81;5090741;28;20044;-68
2021/10/09 04:08:30;;;;;;;50.65;28.85;;;;;;;9.24;82.22;102579.16;5083368;28;20040;-68
2021/10/09 04:10:58;;;;;;;59.28;31.15;;;;;;;9.25;82.36;102572.88;5081242;28;20059;-68
2021/10/09 04:13:25;;;;;;;53.00;30.15;;;;;;;9.25;82.51;102575.53;5076455;28;20040;-68
2021/10/09 04:15:53;;;;;;;52.97;29.77;;;;;;;9.19;82.60;102576.78;5093494;28;20071;-68
2021/10/09 04:18:19;;;;;;;61.42;31.02;;;;;;;9.17;83.15;102577.84;5093889;28;20086;-68
2021/10/09 04:20:46;;;;;;;57.75;29.73;;;;;;;9.16;83.05;102586.72;5093830;28;20090;-68
2021/10/09 04:23:14;;;;;;;55.08;29.17;;;;;;;9.10;83.47;102574.72;5073296;28;20048;-68
2021/10/09 04:25:41;;;;;;;57.38;31.20;;;;;;;9.09;83.46;102575.66;5090640;28;20036;-68
2021/10/09 04:28:08;;;;;;;55.95;30.20;;;;;;;9.06;83.41;102578.53;5093661;28;20094;-68
2021/10/09 04:30:35;;;;;;;67.30;30.88;;;;;;;9.07;83.30;102579.38;5093807;28;20036;-68
2021/10/09 04:33:03;;;;;;;60.00;30.88;;;;;;;9.10;83.38;102577.38;5095024;28;20105;-68
2021/10/09 04:35:31;;;;;;;55.75;31.83;;;;;;;9.11;83.12;102573.75;5094358;28;20040;-68
2021/10/09 04:38:05;;;;;;;55.17;30.85;;;;;;;9.13;83.28;102577.19;5092888;28;20032;-68
2021/10/09 04:40:32;;;;;;;57.38;30.42;;;;;;;9.16;82.49;102566.38;5094486;28;20044;-68
2021/10/09 04:42:59;;;;;;;54.15;30.73;;;;;;;9.17;82.32;102573.38;5080181;28;20493;-67
2021/10/09 04:45:26;;;;;;;65.45;31.42;;;;;;;9.12;82.27;102570.19;5093246;28;20492;-68
2021/10/09 04:47:53;;;;;;;60.28;31.10;;;;;;;9.12;82.44;102567.53;5094532;28;20051;-68
2021/10/09 04:50:20;;;;;;;63.53;30.75;;;;;;;9.15;82.27;102567.34;5093500;28;20489;-68
2021/10/09 04:52:47;;;;;;;55.08;29.52;;;;;;;9.12;82.16;102572.00;5093222;28;20412;-68
2021/10/09 04:55:14;;;;;;;56.42;30.27;;;;;;;9.10;82.38;102572.09;5094393;28;20142;-68
2021/10/09 04:57:42;;;;;;;57.13;29.98;;;;;;;9.10;82.50;102564.13;5094372;28;20396;-68
2021/10/09 05:00:10;;;;;;;55.00;29.23;;;;;;;9.09;82.08;102564.25;5093298;28;20085;-68
2021/10/09 05:02:37;;;;;;;60.92;32.13;;;;;;;9.07;82.12;102568.78;5092957;28;20048;-68
2021/10/09 05:05:06;;;;;;;58.17;29.75;;;;;;;8.99;82.33;102569.28;5094277;28;20143;-68
2021/10/09 05:07:35;;;;;;;63.22;30.88;;;;;;;9.03;81.94;102571.63;5080903;28;20040;-68
2021/10/09 05:10:04;;;;;;;65.30;31.38;;;;;;;9.01;82.09;102570.03;5088573;28;20044;-68
2021/10/09 05:12:32;;;;;;;57.28;30.08;;;;;;;9.02;81.86;102569.94;5094242;28;20040;-68
2021/10/09 05:14:59;;;;;;;56.75;30.20;;;;;;;9.02;81.63;102574.38;5093995;28;20075;-68
2021/10/09 05:17:27;;;;;;;62.40;31.48;;;;;;;8.99;82.11;102572.78;5060057;28;20471;-68
2021/10/09 05:19:54;;;;;;;60.42;31.52;;;;;;;8.92;82.09;102576.75;5093837;28;20064;-68
2021/10/09 05:22:21;;;;;;;56.75;29.33;;;;;;;8.93;81.97;102567.88;5092768;28;20106;-68
2021/10/09 05:24:51;;;;;;;58.30;29.73;;;;;;;8.89;81.71;102568.16;5089959;28;20507;-67
2021/10/09 05:27:18;;;;;;;55.97;30.67;;;;;;;8.88;81.85;102579.69;5076465;28;20412;-68
2021/10/09 05:29:44;;;;;;;64.13;30.15;;;;;;;8.82;82.02;102571.22;5075887;28;20442;-67
2021/10/09 05:32:11;;;;;;;58.70;29.98;;;;;;;8.84;81.60;102571.97;5093839;28;20504;-68
2021/10/09 05:34:39;;;;;;;58.70;29.77;;;;;;;8.88;81.69;102571.75;5074109;28;20497;-68
2021/10/09 05:37:06;;;;;;;61.70;30.13;;;;;;;8.81;81.83;102574.81;5092829;28;20123;-68
2021/10/09 05:39:34;;;;;;;61.60;30.38;;;;;;;8.78;82.00;102576.78;5092723;28;20093;-67
2021/10/09 05:42:01;;;;;;;57.63;29.30;;;;;;;8.78;81.86;102567.03;5093977;28;20083;-68
2021/10/09 05:44:28;;;;;;;58.30;29.23;;;;;;;8.75;81.99;102576.97;5075986;28;20044;-68
2021/10/09 05:46:56;;;;;;;58.67;30.25;;;;;;;8.73;81.74;102576.22;5093516;28;20089;-68
2021/10/09 05:49:23;;;;;;;55.38;28.85;;;;;;;8.81;81.65;102574.81;5084290;28;20047;-68
2021/10/09 05:51:59;;;;;;;57.95;30.77;;;;;;;8.75;81.91;102576.97;5063291;28;20128;-67
2021/10/09 05:54:34;;;;;;;58.33;30.90;;;;;;;8.72;81.73;102578.03;5084715;28;20097;-68
2021/10/09 05:57:06;;;;;;;71.65;34.08;;;;;;;8.68;82.47;102579.19;5092999;28;20365;-68
2021/10/09 06:00:02;;;;;;;65.15;32.22;;;;;;;8.69;82.36;102590.59;5092998;28;20043;-68
2021/10/09 06:25:08;;;;;;;56.15;31.25;;;;;;;8.67;82.27;102589.84;5093343;28;20122;-68
2021/10/09 07:01:20;;;;;;;63.67;30.00;;;;;;;9.04;82.12;102630.75;5088033;28;20039;-68
2021/10/09 07:03:48;;;;;;;60.40;31.73;;;;;;;9.13;82.37;102629.28;5074350;28;20512;-68
2021/10/09 07:06:17;;;;;;;56.28;29.83;;;;;;;9.20;81.79;102633.22;5073169;28;20139;-68
2021/10/09 07:08:50;;;;;;;68.70;30.67;;;;;;;9.15;82.40;102632.66;5074663;28;20126;-68
2021/10/09 07:11:33;;;;;;;59.78;29.98;;;;;;;9.21;81.76;102641.06;5090884;28;20048;-68
2021/10/09 07:14:00;;;;;;;54.28;29.60;;;;;;;9.30;81.61;102642.28;5044214;28;20512;-68
2021/10/09 07:16:26;;;;;;;54.05;29.92;;;;;;;9.36;81.72;102639.22;5083907;28;20086;-68
2021/10/09 07:18:54;;;;;;;61.60;30.88;;;;;;;9.45;80.86;102648.38;5053768;28;20052;-68
2021/10/09 07:21:21;;;;;;;56.55;29.77;;;;;;;9.48;81.21;102644.66;5070442;28;20044;-68
2021/10/09 07:23:47;;;;;;;54.80;29.73;;;;;;;9.59;80.98;102650.13;5080818;28;20560;-68
2021/10/09 07:26:15;;;;;;;60.92;29.20;;;;;;;9.67;80.46;102652.28;5071497;28;20040;-68
2021/10/09 07:28:42;;;;;;;63.10;29.27;;;;;;;9.69;80.20;102656.50;5091012;28;20040;-69
2021/10/09 07:31:09;;;;;;;58.40;29.88;;;;;;;9.59;79.53;102658.94;5092019;28;20509;-68
2021/10/09 07:33:36;;;;;;;67.40;31.98;;;;;;;9.56;79.88;102658.28;5077506;28;20416;-68
2021/10/09 07:36:03;;;;;;;64.75;29.55;;;;;;;9.77;79.54;102658.69;5081216;28;20048;-68
2021/10/09 07:38:30;;;;;;;52.63;28.63;;;;;;;9.85;79.13;102660.81;5095332;28;20453;-68
2021/10/09 07:40:56;;;;;;;56.78;31.60;;;;;;;9.97;79.55;102667.94;5096150;28;20040;-68
2021/10/09 07:43:24;;;;;;;65.95;30.70;;;;;;;10.06;79.23;102671.75;5094894;28;20040;-68
2021/10/09 07:45:51;;;;;;;58.65;30.25;;;;;;;10.14;79.32;102666.81;5095290;28;20044;-68
2021/10/09 07:48:18;;;;;;;52.55;28.33;;;;;;;10.30;78.23;102664.81;5081261;28;20131;-68
2021/10/09 07:50:44;;;;;;;57.58;29.27;;;;;;;10.43;77.11;102667.50;5085303;28;20043;-68
2021/10/09 07:53:11;;;;;;;57.65;28.20;;;;;;;10.52;77.67;102666.84;5078987;28;20040;-68
2021/10/09 07:55:38;;;;;;;53.78;29.80;;;;;;;10.60;77.11;102662.81;5074239;28;20115;-68
2021/10/09 07:58:04;;;;;;;63.63;28.80;;;;;;;10.64;76.39;102665.16;5077756;28;20464;-68
2021/10/09 08:00:31;;;;;;;51.53;27.40;;;;;;;10.72;76.11;102665.44;5079321;28;20116;-68
2021/10/09 08:03:03;;;;;;;49.38;26.90;;;;;;;10.76;76.18;102669.59;5091766;28;20040;-69
2021/10/09 08:05:34;;;;;;;48.03;27.00;;;;;;;10.93;74.98;102659.56;5069537;28;20047;-68
2021/10/09 08:08:02;;;;;;;51.92;28.15;;;;;;;11.00;75.31;102665.31;5079625;28;20047;-68
2021/10/09 08:10:29;;;;;;;56.25;28.40;;;;;;;11.06;75.29;102665.72;5082496;28;20511;-69
2021/10/09 08:12:56;;;;;;;53.15;27.48;;;;;;;11.01;74.63;102662.53;5091729;28;20153;-69
2021/10/09 08:15:23;;;;;;;54.40;27.70;;;;;;;11.06;74.51;102662.19;5098073;28;20051;-69
2021/10/09 08:17:50;;;;;;;54.13;29.02;;;;;;;11.17;75.02;102662.28;5092286;28;20036;-68
2021/10/09 08:20:17;;;;;;;51.60;27.02;;;;;;;11.22;74.09;102665.44;5079499;28;20047;-68
2021/10/09 08:22:57;;;;;;;51.08;26.70;;;;;;;11.40;72.86;102675.69;5064587;28;20080;-69
2021/10/09 08:36:49;;;;;;;57.92;27.90;;;;;;;11.31;72.89;102675.41;5098576;28;20039;-68
2021/10/09 08:39:17;;;;;;;54.55;27.38;;;;;;;11.44;73.30;102683.34;5094240;28;20434;-68
2021/10/09 08:41:48;;;;;;;46.92;26.40;;;;;;;11.59;72.01;102672.50;5073457;28;20047;-68
2021/10/09 08:44:15;;;;;;;50.05;26.67;;;;;;;11.48;73.85;102678.66;5072520;28;20431;-69
2021/10/09 08:46:42;;;;;;;49.83;26.02;;;;;;;11.53;72.90;102685.31;5089422;28;20048;-68
2021/10/09 08:49:10;;;;;;;51.10;25.40;;;;;;;11.53;70.65;102682.66;5073266;28;20562;-68
2021/10/09 08:51:38;;;;;;;49.28;24.30;;;;;;;11.68;71.56;102680.69;5081067;28;20127;-68
2021/10/09 08:54:09;;;;;;;50.67;25.55;;;;;;;11.78;71.16;102678.16;5099969;28;20040;-68
2021/10/09 08:56:41;;;;;;;50.28;25.33;;;;;;;11.74;71.46;102681.19;5088975;28;20028;-68
2021/10/09 09:02:11;;;;;;;46.50;24.15;;;;;;;11.80;70.36;102676.25;5090255;27;20389;-68
2021/10/09 09:31:04;;;;;;;39.25;21.33;;;;;;;13.15;63.62;102661.41;5084705;28;20051;-67
2021/10/09 09:33:37;;;;;;;39.75;21.02;;;;;;;13.42;62.99;102674.34;5086472;28;20064;-67
2021/10/09 09:36:10;;;;;;;38.28;19.63;;;;;;;13.98;61.14;102666.09;5080801;28;20051;-67
2021/10/09 09:41:50;;;;;;;40.47;21.48;;;;;;;16.35;52.87;102662.03;5125694;27;20380;-68
2021/10/09 09:44:21;;;;;;;36.22;19.80;;;;;;;17.47;50.32;102659.22;5109525;28;20077;-67
2021/10/09 09:47:09;;;;;;;40.35;20.60;;;;;;;18.36;47.29;102654.72;5122412;28;20036;-68
2021/10/09 09:49:50;;;;;;;35.53;20.77;;;;;;;19.40;45.69;102653.59;5109493;28;20102;-69
2021/10/09 09:52:18;;;;;;;37.55;21.58;;;;;;;19.35;46.16;102647.88;5109413;28;20040;-68
2021/10/09 09:54:45;;;;;;;39.03;21.13;;;;;;;20.55;42.97;102650.78;5101769;28;20390;-68
2021/10/09 09:57:12;;;;;;;39.60;20.70;;;;;;;21.21;41.69;102648.66;5111140;28;20039;-68
2021/10/09 09:59:42;;;;;;;38.15;20.85;;;;;;;21.97;40.86;102645.19;5115887;28;20039;-68
2021/10/09 10:02:10;;;;;;;47.50;21.85;;;;;;;22.59;38.90;102642.19;5104825;28;20046;-68
2021/10/09 10:04:37;;;;;;;36.65;21.02;;;;;;;22.78;38.53;102643.44;5107483;28;20520;-68
2021/10/09 10:07:03;;;;;;;38.72;20.85;;;;;;;23.20;35.26;102638.34;5101156;28;20531;-68
2021/10/09 10:09:31;;;;;;;37.72;21.95;;;;;;;22.37;38.22;102645.81;5107532;28;20036;-69
2021/10/09 10:12:02;;;;;;;37.45;20.65;;;;;;;22.84;36.41;102646.44;5097553;28;20048;-68
2021/10/09 10:14:31;;;;;;;38.58;20.33;;;;;;;23.41;36.62;102642.06;5099363;28;20047;-68
2021/10/09 10:16:59;;;;;;;41.00;21.83;;;;;;;23.48;35.76;102641.09;5112738;28;20051;-68
2021/10/09 10:19:57;;;;;;;42.90;21.10;;;;;;;23.38;35.11;102635.19;5106800;28;20044;-68
2021/10/09 10:25:29;;;;;;;41.25;21.58;;;;;;;24.47;33.87;102644.75;5124693;27;20904;-63
2021/10/09 10:28:13;;;;;;;39.80;21.58;;;;;;;24.68;33.80;102643.84;5103683;28;20079;-63
2021/10/09 10:30:44;;;;;;;34.35;21.27;;;;;;;24.31;35.37;102633.19;5101312;28;20488;-63
2021/10/09 10:35:48;;;;;;;42.45;22.15;;;;;;;24.39;33.89;102640.31;5087434;27;20469;-63
2021/10/09 10:41:03;;;;;;;41.88;22.83;;;;;;;24.00;35.05;102636.34;5120353;27;20131;-64
2021/10/09 10:43:38;;;;;;;38.72;21.65;;;;;;;23.94;35.06;102637.16;5103263;28;20032;-63
2021/10/09 10:49:37;;;;;;;43.80;22.33;;;;;;;23.68;34.67;102630.44;5097341;27;20411;-63
2021/10/09 10:52:35;;;;;;;39.03;21.52;;;;;;;23.19;36.19;102625.81;5085377;28;20585;-63
2021/10/09 10:55:02;;;;;;;42.92;22.15;;;;;;;21.30;40.39;102627.81;5082937;28;20032;-63
2021/10/09 10:57:29;;;;;;;44.88;22.75;;;;;;;20.74;41.37;102629.84;5065885;28;20588;-64
2021/10/09 11:00:13;;;;;;;41.08;21.63;;;;;;;21.20;40.53;102625.38;5075020;28;20497;-63
2021/10/09 11:02:45;;;;;;;40.05;20.88;;;;;;;20.76;41.60;102627.84;5083053;28;20126;-63
2021/10/09 11:05:15;;;;;;;44.90;21.63;;;;;;;20.33;42.54;102631.66;5080975;28;20119;-63
2021/10/09 11:07:44;;;;;;;49.08;22.42;;;;;;;20.74;40.86;102628.00;5048940;28;20033;-63
2021/10/09 11:10:18;;;;;;;37.00;21.67;;;;;;;21.24;41.04;102625.84;5059461;28;20053;-63
2021/10/09 11:12:49;;;;;;;40.47;21.23;;;;;;;21.66;38.84;102619.97;5066099;28;20490;-63
2021/10/09 11:15:22;;;;;;;39.88;20.20;;;;;;;21.75;39.11;102623.44;5066443;28;20060;-62
2021/10/09 11:17:57;;;;;;;41.20;20.88;;;;;;;22.21;37.27;102626.03;5069664;28;20032;-63
2021/10/09 11:20:27;;;;;;;42.55;22.10;;;;;;;22.35;38.47;102613.56;5066838;28;20040;-62
2021/10/09 11:22:58;;;;;;;37.80;20.23;;;;;;;22.60;38.12;102611.41;5070869;28;20106;-61
2021/10/09 11:25:30;;;;;;;43.35;20.65;;;;;;;22.54;38.59;102619.41;5031666;28;20458;-62
2021/10/09 11:28:00;;;;;;;43.13;21.35;;;;;;;22.04;37.75;102611.84;5080595;28;20118;-62
2021/10/09 11:30:28;;;;;;;39.17;21.52;;;;;;;21.91;39.46;102610.81;5068894;28;20055;-61
2021/10/09 11:32:56;;;;;;;49.45;21.25;;;;;;;21.76;38.94;102600.00;5069346;28;20044;-61
2021/10/09 11:35:34;;;;;;;47.65;21.98;;;;;;;21.39;39.26;102613.28;5077790;28;20056;-62
2021/10/09 11:38:05;;;;;;;50.20;20.35;;;;;;;21.28;40.46;102605.56;5047685;28;20055;-63
2021/10/09 11:40:50;;;;;;;39.47;22.15;;;;;;;21.13;40.87;102607.38;5087545;28;20036;-63
2021/10/09 11:43:24;;;;;;;44.72;21.85;;;;;;;21.72;39.22;102596.81;5087115;28;20086;-63
2021/10/09 11:46:07;;;;;;;42.35;21.55;;;;;;;22.49;37.25;102605.66;5082423;28;20505;-63
2021/10/09 11:55:30;;;;;;;41.05;20.48;;;;;;;23.14;34.75;102596.63;5085194;28;20051;-63
2021/10/09 11:58:12;;;;;;;43.35;20.70;;;;;;;23.88;34.92;102598.09;5089539;28;20033;-63
2021/10/09 12:00:50;;;;;;;37.05;20.42;;;;;;;24.08;34.76;102591.97;5060573;28;20045;-63
2021/10/09 12:03:37;;;;;;;41.90;20.98;;;;;;;23.48;34.82;102588.81;5067924;28;20041;-63
2021/10/09 12:06:09;;;;;;;41.10;20.73;;;;;;;23.28;35.82;102584.03;5070662;28;20040;-63
2021/10/09 12:08:56;;;;;;;48.53;21.33;;;;;;;22.51;37.32;102580.06;5067074;28;20039;-63
2021/10/09 12:11:29;;;;;;;43.20;22.58;;;;;;;22.46;36.92;102579.81;5064827;28;20505;-63
2021/10/09 12:14:00;;;;;;;40.65;20.45;;;;;;;22.61;38.10;102577.94;5074015;28;20036;-63
2021/10/09 12:16:28;;;;;;;;;;;;;;;22.49;38.01;102576.72;5073693;28;20575;-68
2021/10/09 12:19:00;;;;;;;43.92;21.25;;;;;;;22.54;37.21;102578.84;5073529;28;19928;-68
2021/10/09 12:21:28;;;;;;;;;;;;;;;22.92;37.89;102571.41;5078932;28;20044;-67
2021/10/09 12:23:56;;;;;;;32.78;19.75;;;;;;;22.70;36.74;102573.25;5088637;28;19923;-69
2021/10/09 12:26:24;;;;;;;41.47;22.05;;;;;;;22.78;36.45;102569.59;5042072;28;20049;-68
2021/10/09 12:29:10;;;;;;;47.50;21.88;;;;;;;23.30;36.85;102570.31;5081117;28;20044;-68
2021/10/09 12:31:43;;;;;;;47.42;21.33;;;;;;;23.77;34.30;102572.34;5084892;28;20090;-68
2021/10/09 12:34:32;;;;;;;52.10;21.27;;;;;;;23.82;34.49;102560.13;5041067;28;20049;-68
2021/10/09 12:37:22;;;;;;;41.10;21.60;;;;;;;22.00;38.19;102553.81;5069552;28;20404;-68
2021/10/09 12:42:48;;;;;;;43.88;20.42;;;;;;;22.03;39.14;102544.50;5128147;27;20387;-68
2021/10/09 12:45:16;;;;;;;36.53;19.85;;;;;;;21.64;40.28;102545.56;5127946;27;20586;-68
2021/10/09 12:47:51;;;;;;;41.42;19.55;;;;;;;22.66;38.64;102544.06;5126193;28;20534;-65
2021/10/09 12:50:18;;;;;;;39.55;19.38;;;;;;;22.95;37.88;102543.09;5129446;27;20047;-69
2021/10/09 12:52:46;;;;;;;42.95;22.45;;;;;;;21.89;39.10;102548.88;5127232;27;20043;-69
2021/10/09 12:55:14;;;;;;;39.25;19.35;;;;;;;22.91;37.83;102539.13;5117895;28;20495;-68
2021/10/09 12:57:53;;;;;;;41.85;21.10;;;;;;;22.68;38.31;102537.41;5126438;27;20036;-67
2021/10/09 13:00:21;;;;;;;43.17;20.77;;;;;;;24.64;33.74;102537.59;5129155;27;20112;-68
2021/10/09 13:02:51;;;;;;;44.20;21.33;;;;;;;24.00;35.53;102538.78;5128449;28;20047;-68
2021/10/09 13:05:19;;;;;;;37.70;20.58;;;;;;;25.43;33.50;102527.88;5128843;27;20061;-68
2021/10/09 13:07:46;;;;;;;36.40;20.13;;;;;;;24.15;35.44;102525.06;5126474;28;20042;-69
2021/10/09 13:10:13;;;;;;;42.75;21.23;;;;;;;24.12;35.29;102515.47;5129729;27;20039;-69
2021/10/09 13:12:39;;;;;;;38.15;20.88;;;;;;;25.37;33.12;102517.03;5122496;28;20036;-69
2021/10/09 13:15:08;;;;;;;44.75;20.25;;;;;;;26.01;31.75;102515.44;5105713;28;20043;-68
2021/10/09 13:17:45;;;;;;;35.58;19.67;;;;;;;25.99;33.00;102514.81;5125709;27;20477;-68
2021/10/09 13:20:12;;;;;;;36.53;20.02;;;;;;;26.23;32.58;102505.09;5110182;28;20381;-68
2021/10/09 13:22:39;;;;;;;33.35;19.45;;;;;;;24.73;33.79;102513.81;5125332;28;20092;-68
2021/10/09 13:25:19;;;;;;;39.35;18.80;;;;;;;25.88;32.59;102508.13;5118931;27;20500;-68
2021/10/09 13:27:50;;;;;;;44.47;18.98;;;;;;;25.02;34.13;102511.78;5128695;27;20092;-68
2021/10/09 13:30:22;;;;;;;39.90;18.30;;;;;;;25.48;33.27;102510.94;5127687;27;20051;-68
2021/10/09 13:32:54;;;;;;;38.20;18.40;;;;;;;24.39;35.41;102514.75;5128892;28;20063;-66